Time;durP1;ratioP1;P1;durP2;ratioP2;P2;SDS_P1;SDS_P2;PMS_P1;PMS_P2;Temp;Humidity;BMP_temperature;BMP_pressure;BME280_temperature;BME280_humidity;BME280_pressure;Samples;Min_cycle;Max_cycle;Signal;HPM_P1;HPM_P2
2024/04/19 00:01:59;;;;;;;27.52;17.88;;;;;;;;;;5379225;26;20014;-68
2024/04/19 00:04:25;;;;;;;25.55;17.25;;;;;;;;;;5379687;26;20036;-68
2024/04/19 00:06:51;;;;;;;29.15;18.30;;;;;;;;;;5379573;26;20000;-67
2024/04/19 00:09:17;;;;;;;28.70;18.10;;;;;;;;;;5379689;26;20000;-68
2024/04/19 00:11:43;;;;;;;26.45;18.15;;;;;;;;;;5379324;26;19996;-67
2024/04/19 00:14:09;;;;;;;27.35;17.52;;;;;;;;;;5379436;26;20050;-66
2024/04/19 00:16:35;;;;;;;26.23;17.27;;;;;;;;;;5379766;26;19996;-67
2024/04/19 00:19:01;;;;;;;25.20;17.35;;;;;;;;;;5380050;26;19992;-68
2024/04/19 00:21:27;;;;;;;23.60;16.52;;;;;;;;;;5381247;26;20024;-67
2024/04/19 00:23:53;;;;;;;25.33;16.88;;;;;;;;;;5381130;26;19996;-67
2024/04/19 00:26:22;;;;;;;24.92;17.60;;;;;;;;;;5382085;26;20000;-68
2024/04/19 00:28:48;;;;;;;23.65;15.63;;;;;;;;;;5385028;26;20716;-67
2024/04/19 00:31:14;;;;;;;23.15;16.05;;;;;;;;;;5385405;26;20071;-68
2024/04/19 00:33:40;;;;;;;19.52;14.45;;;;;;;;;;5387030;26;20472;-66
2024/04/19 00:36:06;;;;;;;20.48;14.63;;;;;;;;;;5386908;26;19992;-68
2024/04/19 00:38:32;;;;;;;23.02;15.27;;;;;;;;;;5387979;26;20569;-68
2024/04/19 00:40:58;;;;;;;19.15;14.13;;;;;;;;;;5386253;26;20000;-68
2024/04/19 00:43:24;;;;;;;19.02;13.43;;;;;;;;;;5382542;26;20000;-68
2024/04/19 00:45:50;;;;;;;21.98;14.70;;;;;;;;;;5382724;26;20015;-68
2024/04/19 00:48:20;;;;;;;20.08;14.50;;;;;;;;;;5381945;26;20450;-68
2024/04/19 00:50:55;;;;;;;18.27;13.82;;;;;;;;;;5382141;26;20000;-68
2024/04/19 00:53:26;;;;;;;20.35;13.45;;;;;;;;;;5381719;26;20007;-67
2024/04/19 00:55:52;;;;;;;;;;;;;;;;;;5382486;26;20482;-67
2024/04/19 00:58:18;;;;;;;18.08;12.13;;;;;;;;;;5381848;26;19925;-67
2024/04/19 01:00:45;;;;;;;19.73;13.25;;;;;;;;;;5381981;26;20036;-67
2024/04/19 01:03:12;;;;;;;20.52;13.32;;;;;;;;;;5381646;26;20069;-68
2024/04/19 01:05:38;;;;;;;17.65;12.25;;;;;;;;;;5382447;26;20023;-68
2024/04/19 01:08:05;;;;;;;19.63;12.63;;;;;;;;;;5382191;26;20456;-67
2024/04/19 01:10:31;;;;;;;18.98;12.20;;;;;;;;;;5381704;26;20367;-67
2024/04/19 01:12:57;;;;;;;17.10;12.20;;;;;;;;;;5381491;26;20008;-67
2024/04/19 01:15:23;;;;;;;14.80;10.63;;;;;;;;;;5381560;26;20089;-67
2024/04/19 01:17:49;;;;;;;16.58;11.55;;;;;;;;;;5380084;26;20018;-68
2024/04/19 01:20:15;;;;;;;24.27;11.82;;;;;;;;;;5380036;26;20001;-67
2024/04/19 01:22:42;;;;;;;15.02;11.00;;;;;;;;;;5369705;26;20004;-67
2024/04/19 01:25:16;;;;;;;15.07;10.82;;;;;;;;;;5381691;26;20015;-67
2024/04/19 01:27:42;;;;;;;17.10;11.40;;;;;;;;;;5403310;21;20460;-63
2024/04/19 01:30:08;;;;;;;17.08;11.38;;;;;;;;;;5378359;26;20000;-64
2024/04/19 01:32:34;;;;;;;16.35;11.10;;;;;;;;;;5380366;26;20000;-65
2024/04/19 01:35:00;;;;;;;14.60;9.95;;;;;;;;;;5382489;26;20011;-65
2024/04/19 01:37:26;;;;;;;17.65;11.43;;;;;;;;;;5381641;26;20015;-64
2024/04/19 01:39:52;;;;;;;15.13;10.52;;;;;;;;;;5350471;26;20344;-64
2024/04/19 01:42:18;;;;;;;14.77;10.60;;;;;;;;;;5380505;26;20000;-64
2024/04/19 01:44:44;;;;;;;13.05;9.63;;;;;;;;;;5379892;26;20448;-65
2024/04/19 01:47:10;;;;;;;13.63;9.85;;;;;;;;;;5381384;26;20012;-65
2024/04/19 01:49:36;;;;;;;13.80;9.52;;;;;;;;;;5380886;26;20000;-65
2024/04/19 01:52:03;;;;;;;13.50;10.10;;;;;;;;;;5380909;26;20007;-64
2024/04/19 01:54:29;;;;;;;11.90;8.98;;;;;;;;;;5380855;26;20000;-65
2024/04/19 01:56:58;;;;;;;14.15;9.35;;;;;;;;;;5380836;26;20000;-65
2024/04/19 01:59:27;;;;;;;13.05;9.50;;;;;;;;;;5380576;26;20010;-65
2024/04/19 02:01:53;;;;;;;12.93;9.38;;;;;;;;;;5380552;26;20014;-65
2024/04/19 02:04:19;;;;;;;12.95;9.23;;;;;;;;;;5380598;26;19996;-65
2024/04/19 02:06:45;;;;;;;11.20;8.23;;;;;;;;;;5380916;26;20471;-64
2024/04/19 02:09:11;;;;;;;14.30;8.80;;;;;;;;;;5380264;26;19996;-64
2024/04/19 02:11:38;;;;;;;14.55;8.63;;;;;;;;;;5380212;26;20068;-65
2024/04/19 02:14:04;;;;;;;12.75;8.43;;;;;;;;;;5378690;26;19996;-65
2024/04/19 02:16:30;;;;;;;14.68;8.15;;;;;;;;;;5380643;26;19997;-65
2024/04/19 02:18:56;;;;;;;11.68;7.72;;;;;;;;;;5380508;26;20003;-64
2024/04/19 02:21:27;;;;;;;17.67;8.00;;;;;;;;;;5380172;26;20008;-64
2024/04/19 02:23:53;;;;;;;11.63;8.25;;;;;;;;;;5380250;26;20007;-65
2024/04/19 02:26:19;;;;;;;10.05;7.13;;;;;;;;;;5380298;26;20000;-65
2024/04/19 02:31:30;;;;;;;11.65;7.80;;;;;;;;;;5345342;26;20015;-63
2024/04/19 02:33:57;;;;;;;11.52;7.30;;;;;;;;;;5345298;26;20000;-64
2024/04/19 02:36:23;;;;;;;12.57;7.40;;;;;;;;;;5345426;26;20020;-64
2024/04/19 02:38:49;;;;;;;17.05;7.50;;;;;;;;;;5345301;26;20001;-64
2024/04/19 02:41:15;;;;;;;13.23;7.00;;;;;;;;;;5343525;26;20001;-66
2024/04/19 02:43:45;;;;;;;11.00;6.53;;;;;;;;;;5345168;26;20012;-66
2024/04/19 02:46:11;;;;;;;11.83;6.90;;;;;;;;;;5345354;26;20464;-66
2024/04/19 02:48:37;;;;;;;10.98;7.43;;;;;;;;;;5345345;26;20001;-68
2024/04/19 02:51:03;;;;;;;9.38;6.22;;;;;;;;;;5345327;26;20016;-67
2024/04/19 02:53:33;;;;;;;12.20;6.35;;;;;;;;;;5344945;26;20042;-67
2024/04/19 02:56:00;;;;;;;10.73;6.30;;;;;;;;;;5344666;26;20001;-67
2024/04/19 02:58:26;;;;;;;8.30;6.20;;;;;;;;;;5344966;26;20019;-65
2024/04/19 03:00:52;;;;;;;10.38;6.45;;;;;;;;;;5343403;26;20012;-66
2024/04/19 03:03:18;;;;;;;9.13;6.00;;;;;;;;;;5344708;26;20096;-67
2024/04/19 03:05:45;;;;;;;8.82;5.80;;;;;;;;;;5345295;26;20459;-67
2024/04/19 03:08:11;;;;;;;9.75;5.93;;;;;;;;;;5344993;26;20005;-63
2024/04/19 03:10:40;;;;;;;9.57;5.50;;;;;;;;;;5345240;26;19996;-65
2024/04/19 03:13:08;;;;;;;9.20;5.65;;;;;;;;;;5344863;26;20003;-66
2024/04/19 03:15:34;;;;;;;9.02;5.70;;;;;;;;;;5330862;26;20005;-66
2024/04/19 03:18:00;;;;;;;8.27;5.85;;;;;;;;;;5344795;26;20004;-66
2024/04/19 03:20:26;;;;;;;6.43;4.93;;;;;;;;;;5345167;26;20009;-66
2024/04/19 03:22:52;;;;;;;8.73;5.43;;;;;;;;;;5344603;26;20074;-65
2024/04/19 03:25:18;;;;;;;7.47;5.25;;;;;;;;;;5344833;26;20075;-65
2024/04/19 03:27:44;;;;;;;7.85;5.25;;;;;;;;;;5344635;26;20020;-66
2024/04/19 03:30:10;;;;;;;11.48;4.88;;;;;;;;;;5344531;26;20099;-65
2024/04/19 03:32:36;;;;;;;8.63;5.15;;;;;;;;;;5344291;26;19997;-66
2024/04/19 03:35:02;;;;;;;6.75;4.72;;;;;;;;;;5344467;26;20610;-65
2024/04/19 03:37:28;;;;;;;10.80;4.65;;;;;;;;;;5342890;26;20008;-64
2024/04/19 03:39:54;;;;;;;7.60;5.18;;;;;;;;;;5344566;26;20015;-64
2024/04/19 03:42:20;;;;;;;7.10;4.88;;;;;;;;;;5344294;26;20693;-64
2024/04/19 03:47:33;;;;;;;6.95;4.45;;;;;;;;;;5344404;26;20120;-64
2024/04/19 03:49:59;;;;;;;6.00;4.32;;;;;;;;;;5344613;26;20009;-64
2024/04/19 03:52:25;;;;;;;6.53;4.30;;;;;;;;;;5343906;26;20011;-64
2024/04/19 03:54:51;;;;;;;7.60;4.43;;;;;;;;;;5344632;26;20050;-64
2024/04/19 03:57:17;;;;;;;7.28;4.28;;;;;;;;;;5344128;26;20362;-63
2024/04/19 03:59:43;;;;;;;6.32;4.38;;;;;;;;;;5344156;26;19997;-64
2024/04/19 04:02:09;;;;;;;5.95;4.10;;;;;;;;;;5343995;26;20020;-63
2024/04/19 04:04:35;;;;;;;5.88;4.35;;;;;;;;;;5344279;26;20024;-64
2024/04/19 04:07:01;;;;;;;5.07;3.70;;;;;;;;;;5344144;26;20468;-64
2024/04/19 04:09:27;;;;;;;6.22;3.67;;;;;;;;;;5344738;26;20005;-64
2024/04/19 04:11:53;;;;;;;5.30;3.90;;;;;;;;;;5347343;26;20016;-64
2024/04/19 04:14:19;;;;;;;5.82;3.58;;;;;;;;;;5347190;26;20531;-64
2024/04/19 04:16:46;;;;;;;4.63;3.50;;;;;;;;;;5348360;26;20005;-64
2024/04/19 04:19:12;;;;;;;5.63;3.88;;;;;;;;;;5348083;26;20015;-64
2024/04/19 04:21:38;;;;;;;5.60;3.72;;;;;;;;;;5348316;26;20444;-64
2024/04/19 04:24:05;;;;;;;5.97;3.70;;;;;;;;;;5348528;26;20005;-65
2024/04/19 04:26:31;;;;;;;7.55;3.72;;;;;;;;;;5345826;26;20101;-64
2024/04/19 04:28:57;;;;;;;4.47;3.08;;;;;;;;;;5347180;26;20456;-65
2024/04/19 04:31:23;;;;;;;5.38;3.72;;;;;;;;;;5347418;26;20005;-64
2024/04/19 04:33:49;;;;;;;5.82;3.60;;;;;;;;;;5345381;26;20016;-64
2024/04/19 04:36:15;;;;;;;5.25;3.47;;;;;;;;;;5348335;26;20020;-65
2024/04/19 04:38:41;;;;;;;4.80;3.58;;;;;;;;;;5382140;26;19996;-65
2024/04/19 04:41:07;;;;;;;10.63;3.85;;;;;;;;;;5381722;26;20421;-65
2024/04/19 04:43:33;;;;;;;8.02;4.15;;;;;;;;;;5381470;26;20008;-64
2024/04/19 04:45:59;;;;;;;7.10;3.13;;;;;;;;;;5381938;26;20004;-65
2024/04/19 04:48:25;;;;;;;5.70;3.75;;;;;;;;;;5373010;26;20000;-66
2024/04/19 04:50:51;;;;;;;6.10;3.22;;;;;;;;;;5382033;26;20424;-66
2024/04/19 04:53:17;;;;;;;5.13;3.22;;;;;;;;;;5381535;26;20047;-66
2024/04/19 04:55:43;;;;;;;5.85;3.05;;;;;;;;;;5381509;26;20000;-66
2024/04/19 04:58:09;;;;;;;6.20;3.15;;;;;;;;;;5381324;26;20086;-66
2024/04/19 05:00:36;;;;;;;6.63;3.05;;;;;;;;;;5381741;26;20000;-66
2024/04/19 05:03:05;;;;;;;6.63;3.20;;;;;;;;;;5381321;26;20011;-65
2024/04/19 05:05:31;;;;;;;4.35;3.20;;;;;;;;;;5381322;26;20016;-65
2024/04/19 05:07:58;;;;;;;52.20;4.93;;;;;;;;;;5381968;26;20012;-66
2024/04/19 05:10:24;;;;;;;16.83;4.13;;;;;;;;;;5381490;26;20425;-66
2024/04/19 05:12:50;;;;;;;11.40;3.33;;;;;;;;;;5380799;26;20355;-65
2024/04/19 05:15:16;;;;;;;9.07;3.28;;;;;;;;;;5382745;26;20000;-64
2024/04/19 05:17:45;;;;;;;8.40;2.55;;;;;;;;;;5381201;26;20464;-64
2024/04/19 05:20:11;;;;;;;8.88;3.42;;;;;;;;;;5381043;26;20360;-64
2024/04/19 05:22:38;;;;;;;6.80;3.40;;;;;;;;;;5381087;26;20004;-64
2024/04/19 05:25:07;;;;;;;14.65;4.30;;;;;;;;;;5380886;26;20101;-65
2024/04/19 05:27:34;;;;;;;16.13;4.63;;;;;;;;;;5368586;26;20079;-64
2024/04/19 05:30:00;;;;;;;14.50;4.88;;;;;;;;;;5346283;26;20005;-63
2024/04/19 05:32:26;;;;;;;27.67;3.70;;;;;;;;;;5345757;26;20464;-63
2024/04/19 05:34:52;;;;;;;11.70;4.00;;;;;;;;;;5346331;26;20417;-63
2024/04/19 05:37:19;;;;;;;14.25;4.30;;;;;;;;;;5346283;26;20020;-63
2024/04/19 05:39:45;;;;;;;12.10;3.42;;;;;;;;;;5346077;26;20092;-63
2024/04/19 05:42:11;;;;;;;14.50;3.20;;;;;;;;;;5345862;26;20028;-63
2024/04/19 05:44:37;;;;;;;11.50;3.97;;;;;;;;;;5346080;26;20355;-63
2024/04/19 05:47:03;;;;;;;10.40;3.15;;;;;;;;;;5346126;26;20001;-64
2024/04/19 05:49:30;;;;;;;14.23;4.07;;;;;;;;;;5345936;26;20005;-63
2024/04/19 05:51:56;;;;;;;16.48;4.15;;;;;;;;;;5345471;26;20009;-64
2024/04/19 05:54:22;;;;;;;12.52;4.07;;;;;;;;;;5343031;26;20341;-63
2024/04/19 05:56:48;;;;;;;7.10;3.45;;;;;;;;;;5346305;26;20009;-65
2024/04/19 05:59:14;;;;;;;21.35;4.30;;;;;;;;;;5346250;26;19996;-64
2024/04/19 06:01:40;;;;;;;6.53;3.30;;;;;;;;;;5345750;26;20409;-65
2024/04/19 06:04:07;;;;;;;15.05;3.40;;;;;;;;;;5345471;26;19996;-65
2024/04/19 06:06:34;;;;;;;10.00;3.72;;;;;;;;;;5346256;26;20091;-64
2024/04/19 06:09:00;;;;;;;7.70;3.15;;;;;;;;;;5346309;26;20472;-65
2024/04/19 06:11:26;;;;;;;14.85;3.08;;;;;;;;;;5345739;26;20078;-66
2024/04/19 06:13:52;;;;;;;8.55;2.70;;;;;;;;;;5345513;26;19997;-66
2024/04/19 06:16:18;;;;;;;18.65;3.67;;;;;;;;;;5342903;26;20001;-65
2024/04/19 06:18:44;;;;;;;12.95;3.20;;;;;;;;;;5343349;26;20024;-65
2024/04/19 06:21:10;;;;;;;15.02;3.45;;;;;;;;;;5342387;26;20005;-65
2024/04/19 06:23:36;;;;;;;11.55;3.10;;;;;;;;;;5345651;26;20001;-65
2024/04/19 06:26:02;;;;;;;14.38;3.08;;;;;;;;;;5345944;26;20074;-65
2024/04/19 06:28:30;;;;;;;15.38;3.42;;;;;;;;;;5345310;26;20012;-64
2024/04/19 06:30:56;;;;;;;11.90;3.30;;;;;;;;;;5344733;26;20015;-64
2024/04/19 06:33:22;;;;;;;23.90;4.65;;;;;;;;;;5344977;26;20004;-66
2024/04/19 06:35:48;;;;;;;11.98;4.13;;;;;;;;;;5343640;26;20036;-65
2024/04/19 06:38:14;;;;;;;5.97;4.00;;;;;;;;;;5345429;26;20020;-66
2024/04/19 06:40:44;;;;;;;11.07;5.07;;;;;;;;;;5345607;26;20082;-67
2024/04/19 06:43:10;;;;;;;6.97;3.45;;;;;;;;;;5345032;26;20016;-67
2024/04/19 06:45:37;;;;;;;3.35;2.30;;;;;;;;;;5345713;26;20005;-67
2024/04/19 06:48:03;;;;;;;3.15;2.00;;;;;;;;;;5345332;26;20013;-67
2024/04/19 06:50:29;;;;;;;4.75;1.90;;;;;;;;;;5345399;26;20012;-67
2024/04/19 06:52:55;;;;;;;5.97;2.30;;;;;;;;;;5345171;26;20001;-67
2024/04/19 06:55:21;;;;;;;6.25;2.05;;;;;;;;;;5345210;26;20013;-67
2024/04/19 06:57:47;;;;;;;5.43;1.75;;;;;;;;;;5345476;26;20001;-67
2024/04/19 07:00:13;;;;;;;3.90;1.92;;;;;;;;;;5345517;26;20001;-67
2024/04/19 07:02:39;;;;;;;4.25;1.70;;;;;;;;;;5345316;26;20012;-68
2024/04/19 07:05:05;;;;;;;5.22;1.85;;;;;;;;;;5348446;26;20015;-67
2024/04/19 07:07:31;;;;;;;3.70;2.00;;;;;;;;;;5345357;26;20004;-67
2024/04/19 07:09:57;;;;;;;4.30;2.15;;;;;;;;;;5345859;26;20075;-67
2024/04/19 07:12:23;;;;;;;3.40;1.17;;;;;;;;;;5343665;26;20435;-67
2024/04/19 07:14:49;;;;;;;4.07;1.30;;;;;;;;;;5345316;26;20011;-67
2024/04/19 07:17:15;;;;;;;2.60;1.48;;;;;;;;;;5345508;26;20449;-67
2024/04/19 07:19:41;;;;;;;3.88;1.40;;;;;;;;;;5345223;26;20008;-67
2024/04/19 07:22:07;;;;;;;3.42;1.50;;;;;;;;;;5344822;26;20368;-67
2024/04/19 07:24:33;;;;;;;2.70;1.60;;;;;;;;;;5345223;26;20013;-67
2024/04/19 07:26:59;;;;;;;2.88;1.27;;;;;;;;;;5345663;26;20037;-67
2024/04/19 07:29:25;;;;;;;3.70;1.77;;;;;;;;;;5390421;21;20084;-68
2024/04/19 07:31:51;;;;;;;5.55;1.80;;;;;;;;;;5412225;26;20330;-68
2024/04/19 07:34:17;;;;;;;2.08;1.08;;;;;;;;;;5415196;26;20004;-67
2024/04/19 07:36:43;;;;;;;2.25;1.30;;;;;;;;;;5415320;26;20072;-67
2024/04/19 07:39:09;;;;;;;2.67;0.98;;;;;;;;;;5414978;26;19999;-66
2024/04/19 07:41:35;;;;;;;3.22;1.13;;;;;;;;;;5414804;26;20003;-67
2024/04/19 07:44:01;;;;;;;2.85;0.93;;;;;;;;;;5412891;26;20466;-67
2024/04/19 07:46:27;;;;;;;2.42;1.15;;;;;;;;;;5413247;26;20125;-67
2024/04/19 07:48:53;;;;;;;2.88;1.00;;;;;;;;;;5415306;26;20026;-67
2024/04/19 07:51:19;;;;;;;1.98;1.05;;;;;;;;;;5414795;26;20456;-67
2024/04/19 07:53:45;;;;;;;2.65;1.50;;;;;;;;;;5414552;26;20014;-68
2024/04/19 07:56:11;;;;;;;1.23;1.13;;;;;;;;;;5415121;26;20018;-67
2024/04/19 07:58:37;;;;;;;2.10;1.17;;;;;;;;;;5414933;26;20000;-68
2024/04/19 08:01:03;;;;;;;2.33;1.05;;;;;;;;;;5414952;26;20382;-68
2024/04/19 08:03:29;;;;;;;2.08;1.02;;;;;;;;;;5414665;26;20351;-67
2024/04/19 08:05:55;;;;;;;1.55;0.85;;;;;;;;;;5414975;26;20014;-67
2024/04/19 08:08:21;;;;;;;2.88;1.65;;;;;;;;;;5414784;26;20000;-67
2024/04/19 08:10:47;;;;;;;2.28;1.00;;;;;;;;;;5414859;26;20014;-67
2024/04/19 08:13:13;;;;;;;1.02;0.65;;;;;;;;;;5414626;26;20003;-68
2024/04/19 08:15:39;;;;;;;1.75;0.85;;;;;;;;;;5414648;26;20031;-66
2024/04/19 08:18:05;;;;;;;4.78;0.75;;;;;;;;;;5412636;26;20000;-68
2024/04/19 08:20:31;;;;;;;1.60;0.88;;;;;;;;;;5390957;26;20016;-68
2024/04/19 08:22:57;;;;;;;2.22;1.13;;;;;;;;;;5380970;26;19996;-67
2024/04/19 08:25:23;;;;;;;1.35;0.82;;;;;;;;;;5413062;26;19999;-68
2024/04/19 08:27:49;;;;;;;1.10;0.68;;;;;;;;;;5414355;26;19996;-67
2024/04/19 08:30:15;;;;;;;2.25;0.88;;;;;;;;;;5412347;26;20006;-67
2024/04/19 08:32:41;;;;;;;2.67;0.75;;;;;;;;;;5414215;26;20338;-67
2024/04/19 08:35:07;;;;;;;1.13;0.80;;;;;;;;;;5414389;26;20374;-68
2024/04/19 08:37:33;;;;;;;1.70;0.82;;;;;;;;;;5414415;26;19995;-68
2024/04/19 08:40:00;;;;;;;1.38;0.73;;;;;;;;;;5414330;26;20469;-67
2024/04/19 08:42:26;;;;;;;1.73;0.90;;;;;;;;;;5413684;26;19996;-67
2024/04/19 08:44:52;;;;;;;1.52;0.88;;;;;;;;;;5413975;26;20007;-66
2024/04/19 08:47:19;;;;;;;2.95;0.88;;;;;;;;;;5412141;26;19999;-68
2024/04/19 08:49:45;;;;;;;1.20;0.93;;;;;;;;;;5413933;26;20003;-68
2024/04/19 08:52:11;;;;;;;0.90;0.60;;;;;;;;;;5413775;26;20068;-68
2024/04/19 08:54:37;;;;;;;2.83;1.25;;;;;;;;;;5413057;26;20405;-67
2024/04/19 08:57:07;;;;;;;2.55;0.95;;;;;;;;;;5417875;26;20076;-68
2024/04/19 08:59:33;;;;;;;1.08;0.70;;;;;;;;;;5417406;26;20014;-69
2024/04/19 09:01:59;;;;;;;1.38;1.00;;;;;;;;;;5417268;26;20003;-68
2024/04/19 09:04:25;;;;;;;2.97;0.88;;;;;;;;;;5417520;26;20004;-68
2024/04/19 09:06:51;;;;;;;1.25;1.02;;;;;;;;;;5417416;26;20015;-68
2024/04/19 09:09:17;;;;;;;1.52;0.70;;;;;;;;;;5417222;26;20356;-68
2024/04/19 09:11:48;;;;;;;1.95;0.60;;;;;;;;;;5415461;26;20076;-68
2024/04/19 09:14:14;;;;;;;1.17;0.70;;;;;;;;;;5417191;26;20481;-67
2024/04/19 09:16:40;;;;;;;0.85;0.68;;;;;;;;;;5417498;26;20543;-67
2024/04/19 09:19:07;;;;;;;0.70;0.50;;;;;;;;;;5417554;26;20003;-68
2024/04/19 09:21:33;;;;;;;2.72;0.98;;;;;;;;;;5417186;26;20000;-66
2024/04/19 09:23:59;;;;;;;1.77;0.60;;;;;;;;;;5417441;26;20035;-67
2024/04/19 09:26:25;;;;;;;0.93;0.73;;;;;;;;;;5417428;26;20014;-67
2024/04/19 09:28:52;;;;;;;1.15;0.70;;;;;;;;;;5416300;26;20008;-68
2024/04/19 09:31:18;;;;;;;0.93;0.50;;;;;;;;;;5417035;26;20011;-67
2024/04/19 09:33:44;;;;;;;1.73;0.60;;;;;;;;;;5417318;26;20422;-67
2024/04/19 09:36:17;;;;;;;1.38;0.80;;;;;;;;;;5417125;26;19999;-67
2024/04/19 09:38:43;;;;;;;0.57;0.50;;;;;;;;;;5417203;26;20004;-68
2024/04/19 09:41:14;;;;;;;1.27;0.70;;;;;;;;;;5416835;26;20035;-68
2024/04/19 09:43:43;;;;;;;0.45;0.45;;;;;;;;;;5416647;26;20003;-67
2024/04/19 09:46:10;;;;;;;1.15;0.65;;;;;;;;;;5417027;26;19999;-67
2024/04/19 09:48:40;;;;;;;0.73;0.63;;;;;;;;;;5416854;26;20003;-68
2024/04/19 09:51:10;;;;;;;1.35;0.73;;;;;;;;;;5417021;26;20015;-68
2024/04/19 09:53:39;;;;;;;1.27;0.73;;;;;;;;;;5416482;26;20003;-69
2024/04/19 09:56:19;;;;;;;0.75;0.43;;;;;;;;;;5416370;26;19999;-67
2024/04/19 09:58:46;;;;;;;0.47;0.43;;;;;;;;;;5416759;26;20007;-68
2024/04/19 10:01:12;;;;;;;0.65;0.52;;;;;;;;;;5417115;26;20043;-67
2024/04/19 10:03:38;;;;;;;1.13;0.50;;;;;;;;;;5416160;26;20030;-66
2024/04/19 10:06:05;;;;;;;0.75;0.73;;;;;;;;;;5415520;26;20466;-66
2024/04/19 10:08:31;;;;;;;0.75;0.50;;;;;;;;;;5416510;26;20021;-67
2024/04/19 10:10:58;;;;;;;1.02;0.52;;;;;;;;;;5414760;26;20016;-67
2024/04/19 10:13:30;;;;;;;1.10;0.57;;;;;;;;;;5416302;26;20011;-67
2024/04/19 10:15:59;;;;;;;0.73;0.70;;;;;;;;;;5416507;26;20004;-68
2024/04/19 10:18:26;;;;;;;1.33;0.43;;;;;;;;;;5416463;26;20467;-68
2024/04/19 10:20:52;;;;;;;0.73;0.55;;;;;;;;;;5416644;26;20003;-68
2024/04/19 10:23:19;;;;;;;0.55;0.45;;;;;;;;;;5416203;26;20004;-68
2024/04/19 10:25:48;;;;;;;0.22;0.22;;;;;;;;;;5416489;26;20004;-69
2024/04/19 10:28:16;;;;;;;0.40;0.40;;;;;;;;;;5416579;26;19999;-68
2024/04/19 10:30:42;;;;;;;0.30;0.30;;;;;;;;;;5416306;26;20076;-68
2024/04/19 10:33:11;;;;;;;0.40;0.35;;;;;;;;;;5416173;26;20382;-68
2024/04/19 10:35:47;;;;;;;0.88;0.50;;;;;;;;;;5416262;26;20011;-68
2024/04/19 10:38:13;;;;;;;0.68;0.50;;;;;;;;;;5414812;26;20035;-68
2024/04/19 10:40:40;;;;;;;0.80;0.30;;;;;;;;;;5416493;26;19995;-68
2024/04/19 10:43:07;;;;;;;0.47;0.47;;;;;;;;;;5416107;26;20003;-68
2024/04/19 10:45:33;;;;;;;0.30;0.30;;;;;;;;;;5416071;26;20004;-68
2024/04/19 10:48:03;;;;;;;0.20;0.20;;;;;;;;;;5414655;26;20018;-67
2024/04/19 10:50:30;;;;;;;0.47;0.30;;;;;;;;;;5416145;26;20026;-68
2024/04/19 10:52:57;;;;;;;0.52;0.25;;;;;;;;;;5415820;26;20340;-68
2024/04/19 10:55:23;;;;;;;0.40;0.40;;;;;;;;;;5413919;26;20011;-68
2024/04/19 10:57:49;;;;;;;0.50;0.30;;;;;;;;;;5416359;26;20010;-68
2024/04/19 11:00:15;;;;;;;0.43;0.30;;;;;;;;;;5414056;26;19995;-68
2024/04/19 11:02:42;;;;;;;0.68;0.20;;;;;;;;;;5415522;26;19999;-68
2024/04/19 11:05:11;;;;;;;0.85;0.60;;;;;;;;;;5415961;26;20015;-68
2024/04/19 11:07:38;;;;;;;0.30;0.30;;;;;;;;;;5415994;26;19995;-68
2024/04/19 11:10:05;;;;;;;0.47;0.40;;;;;;;;;;5415701;26;20000;-68
2024/04/19 11:12:31;;;;;;;0.50;0.30;;;;;;;;;;5415271;26;20044;-68
2024/04/19 11:15:01;;;;;;;1.95;0.68;;;;;;;;;;5416101;26;20003;-68
2024/04/19 11:17:27;;;;;;;0.60;0.20;;;;;;;;;;5414535;26;20424;-66
2024/04/19 11:19:53;;;;;;;0.70;0.30;;;;;;;;;;5415861;26;20000;-67
2024/04/19 11:22:19;;;;;;;0.28;0.28;;;;;;;;;;5415613;26;20000;-66
2024/04/19 11:24:45;;;;;;;0.57;0.32;;;;;;;;;;5413561;26;19999;-66
2024/04/19 11:27:12;;;;;;;0.90;0.40;;;;;;;;;;5415181;26;20010;-65
2024/04/19 11:29:38;;;;;;;0.75;0.32;;;;;;;;;;5414910;26;20022;-66
2024/04/19 11:32:07;;;;;;;0.30;0.30;;;;;;;;;;5415277;26;20015;-66
2024/04/19 11:34:34;;;;;;;0.47;0.40;;;;;;;;;;5415030;26;20000;-65
2024/04/19 11:37:03;;;;;;;0.40;0.40;;;;;;;;;;5415392;26;20007;-66
2024/04/19 11:39:30;;;;;;;0.60;0.50;;;;;;;;;;5415032;26;20490;-66
2024/04/19 11:41:56;;;;;;;0.30;0.30;;;;;;;;;;5414920;26;20454;-65
2024/04/19 11:44:22;;;;;;;1.48;0.55;;;;;;;;;;5415294;26;20000;-66
2024/04/19 11:46:48;;;;;;;0.20;0.20;;;;;;;;;;5415242;26;20008;-67
2024/04/19 11:49:15;;;;;;;0.32;0.25;;;;;;;;;;5415165;26;20010;-67
2024/04/19 11:51:41;;;;;;;0.35;0.35;;;;;;;;;;5414678;26;20012;-66
2024/04/19 11:54:08;;;;;;;0.38;0.38;;;;;;;;;;5414095;26;20000;-67
2024/04/19 11:56:34;;;;;;;0.30;0.30;;;;;;;;;;5415037;26;20005;-67
2024/04/19 11:59:01;;;;;;;0.43;0.40;;;;;;;;;;5414862;26;20010;-67
2024/04/19 12:01:27;;;;;;;0.65;0.30;;;;;;;;;;5414555;26;20417;-66
2024/04/19 12:03:54;;;;;;;0.88;0.38;;;;;;;;;;5414617;26;20004;-67
2024/04/19 12:06:21;;;;;;;0.75;0.30;;;;;;;;;;5403412;26;20469;-66
2024/04/19 12:08:51;;;;;;;0.30;0.28;;;;;;;;;;5400265;26;20000;-67
2024/04/19 12:11:17;;;;;;;0.75;0.32;;;;;;;;;;5379251;26;20533;-67
2024/04/19 12:13:48;;;;;;;1.17;0.63;;;;;;;;;;5387330;26;20019;-67
2024/04/19 12:16:14;;;;;;;0.88;0.50;;;;;;;;;;5395018;26;20077;-67
2024/04/19 12:18:40;;;;;;;0.47;0.20;;;;;;;;;;5397374;26;20046;-64
2024/04/19 12:21:07;;;;;;;1.63;0.68;;;;;;;;;;5390311;26;20001;-65
2024/04/19 12:23:33;;;;;;;0.85;0.55;;;;;;;;;;5378941;26;20004;-66
2024/04/19 12:25:59;;;;;;;3.80;0.47;;;;;;;;;;5405020;26;20012;-66
2024/04/19 12:28:25;;;;;;;13.88;1.27;;;;;;;;;;5388070;26;20012;-66
2024/04/19 12:30:52;;;;;;;2.42;0.40;;;;;;;;;;5380533;26;20015;-66
2024/04/19 12:33:18;;;;;;;4.00;0.90;;;;;;;;;;5382303;26;20000;-67
2024/04/19 12:35:44;;;;;;;3.22;0.80;;;;;;;;;;5380173;26;20019;-68
2024/04/19 12:38:10;;;;;;;6.22;0.80;;;;;;;;;;5379069;26;20044;-66
2024/04/19 12:40:36;;;;;;;1.00;0.38;;;;;;;;;;5381968;26;20312;-67
2024/04/19 12:43:02;;;;;;;0.45;0.35;;;;;;;;;;5381904;26;20090;-67
2024/04/19 12:45:29;;;;;;;3.67;0.95;;;;;;;;;;5382542;26;20015;-67
2024/04/19 12:48:02;;;;;;;1.10;0.70;;;;;;;;;;5382175;26;20027;-66
2024/04/19 12:50:28;;;;;;;4.68;0.70;;;;;;;;;;5382343;26;20000;-67
2024/04/19 12:52:54;;;;;;;1.73;0.68;;;;;;;;;;5382042;26;20011;-67
2024/04/19 12:55:20;;;;;;;3.00;0.45;;;;;;;;;;5381981;26;20012;-67
2024/04/19 12:57:46;;;;;;;0.38;0.35;;;;;;;;;;5382278;26;20430;-67
2024/04/19 13:00:12;;;;;;;2.58;0.57;;;;;;;;;;5381993;26;20004;-69
2024/04/19 13:02:38;;;;;;;1.23;0.43;;;;;;;;;;5381959;26;20004;-67
2024/04/19 13:05:05;;;;;;;1.13;0.28;;;;;;;;;;5381877;26;20015;-68
2024/04/19 13:07:31;;;;;;;2.75;0.40;;;;;;;;;;5381778;26;20036;-68
2024/04/19 13:09:57;;;;;;;2.53;0.50;;;;;;;;;;5382038;26;19997;-67
2024/04/19 13:12:23;;;;;;;0.30;0.30;;;;;;;;;;5381600;26;20000;-67
2024/04/19 13:14:49;;;;;;;1.83;0.40;;;;;;;;;;5381877;26;20493;-67
2024/04/19 13:17:15;;;;;;;0.95;0.40;;;;;;;;;;5381773;26;20004;-67
2024/04/19 13:19:41;;;;;;;2.15;0.50;;;;;;;;;;5381551;26;20019;-67
2024/04/19 13:22:07;;;;;;;1.58;0.45;;;;;;;;;;5381292;26;20484;-68
2024/04/19 13:24:33;;;;;;;1.27;0.35;;;;;;;;;;5381649;26;20348;-68
2024/04/19 13:26:59;;;;;;;0.73;0.47;;;;;;;;;;5381483;26;20043;-68
2024/04/19 13:29:26;;;;;;;2.05;0.30;;;;;;;;;;5380765;26;20015;-67
2024/04/19 13:31:53;;;;;;;0.60;0.30;;;;;;;;;;5381684;26;20471;-65
2024/04/19 13:34:19;;;;;;;0.20;0.20;;;;;;;;;;5381523;26;20004;-67
2024/04/19 13:36:46;;;;;;;1.23;0.40;;;;;;;;;;5381443;26;20428;-68
2024/04/19 13:39:12;;;;;;;0.35;0.25;;;;;;;;;;5379516;26;20000;-67
2024/04/19 13:41:39;;;;;;;0.95;0.30;;;;;;;;;;5381279;26;20000;-67
2024/04/19 13:44:05;;;;;;;0.10;0.10;;;;;;;;;;5381211;26;20004;-67
2024/04/19 13:46:31;;;;;;;0.70;0.20;;;;;;;;;;5380972;26;20086;-66
2024/04/19 13:48:57;;;;;;;3.63;0.85;;;;;;;;;;5389374;26;20459;-65
2024/04/19 13:51:25;;;;;;;4.95;0.85;;;;;;;;;;5416610;26;20045;-65
2024/04/19 13:53:51;;;;;;;1.42;0.20;;;;;;;;;;5416624;26;20011;-65
2024/04/19 13:56:17;;;;;;;3.20;0.77;;;;;;;;;;5416769;26;19999;-65
2024/04/19 13:58:44;;;;;;;3.05;0.65;;;;;;;;;;5416836;26;20004;-65
2024/04/19 14:01:15;;;;;;;2.33;0.55;;;;;;;;;;5416515;26;20088;-67
2024/04/19 14:03:41;;;;;;;2.67;0.52;;;;;;;;;;5416484;26;20004;-67
2024/04/19 14:06:07;;;;;;;7.80;0.98;;;;;;;;;;5416019;26;20011;-67
2024/04/19 14:08:33;;;;;;;1.48;0.63;;;;;;;;;;5412025;26;20355;-67
2024/04/19 14:10:59;;;;;;;2.42;0.60;;;;;;;;;;5415979;26;19996;-67
2024/04/19 14:13:25;;;;;;;4.72;1.05;;;;;;;;;;5384433;26;20011;-67
2024/04/19 14:15:51;;;;;;;3.22;0.73;;;;;;;;;;5379313;26;20458;-67
2024/04/19 14:18:17;;;;;;;6.47;0.88;;;;;;;;;;5381061;26;20459;-68
2024/04/19 14:20:45;;;;;;;4.10;0.75;;;;;;;;;;5380608;26;20007;-68
2024/04/19 14:23:12;;;;;;;2.30;0.40;;;;;;;;;;5389550;26;20014;-66
2024/04/19 14:25:38;;;;;;;4.40;0.40;;;;;;;;;;5414269;26;20010;-68
2024/04/19 14:28:04;;;;;;;3.67;0.77;;;;;;;;;;5416206;26;20085;-67
2024/04/19 14:30:30;;;;;;;2.97;0.75;;;;;;;;;;5416388;26;19999;-67
2024/04/19 14:32:57;;;;;;;5.07;0.50;;;;;;;;;;5419278;26;20350;-68
2024/04/19 14:35:23;;;;;;;2.40;0.63;;;;;;;;;;5411765;26;20003;-68
2024/04/19 14:37:49;;;;;;;1.88;0.45;;;;;;;;;;5415753;26;20000;-68
2024/04/19 14:40:15;;;;;;;0.98;0.55;;;;;;;;;;5410039;26;20007;-68